Time;durP1;ratioP1;P1;durP2;ratioP2;P2;SDS_P1;SDS_P2;PMS_P1;PMS_P2;Temp;Humidity;BMP_temperature;BMP_pressure;BME280_temperature;BME280_humidity;BME280_pressure;Samples;Min_cycle;Max_cycle;Signal;HPM_P1;HPM_P2
2022/04/02 04:01:17;;;;;;;1.80;1.40;;;-2.60;96.30;;;;;;5528306;23;20505;-76
2022/04/02 04:03:42;;;;;;;2.80;2.30;;;-2.60;96.30;;;;;;4972910;28;20441;-76
2022/04/02 04:06:09;;;;;;;4.93;2.53;;;-2.70;96.30;;;;;;4975374;28;20265;-76
2022/04/02 04:08:37;;;;;;;14.63;1.80;;;-2.70;96.30;;;;;;4974628;28;20253;-76
2022/04/02 04:11:02;;;;;;;1.57;1.10;;;-2.70;96.30;;;;;;4975273;28;20437;-76
2022/04/02 04:13:28;;;;;;;4.50;1.30;;;-2.80;96.30;;;;;;4975185;28;20413;-76
2022/04/02 04:15:53;;;;;;;4.67;1.67;;;-2.80;96.30;;;;;;4977264;28;20656;-76
2022/04/02 04:18:19;;;;;;;2.93;1.87;;;-2.80;96.30;;;;;;4975018;28;20313;-76
2022/04/02 05:09:57;;;;;;;3.30;1.80;;;-3.40;96.30;;;;;;5113132;23;20524;-79
2022/04/02 05:12:22;;;;;;;9.10;1.80;;;-3.30;96.30;;;;;;4977316;28;20449;-79
2022/04/02 05:14:49;;;;;;;2.03;1.50;;;-3.30;96.30;;;;;;4976686;28;20416;-79
2022/04/02 05:17:16;;;;;;;2.07;1.63;;;-3.30;96.30;;;;;;4976939;28;20170;-79
2022/04/02 05:19:42;;;;;;;6.70;2.70;;;-3.40;96.30;;;;;;4978440;28;20453;-79
2022/04/02 05:22:10;;;;;;;3.17;1.73;;;-3.30;96.30;;;;;;4977528;28;20797;-79
2022/04/02 05:24:36;;;;;;;1.00;0.90;;;-3.30;96.30;;;;;;4975322;28;20187;-80
2022/04/02 05:27:02;;;;;;;4.03;2.50;;;-3.30;96.30;;;;;;4974292;28;20807;-79
2022/04/02 05:29:28;;;;;;;3.13;1.80;;;-3.30;96.30;;;;;;4973843;28;20454;-78
2022/04/02 05:50:02;;;;;;;4.10;2.37;;;-3.10;96.30;;;;;;5306328;23;20979;-78
2022/04/02 05:52:28;;;;;;;3.93;2.03;;;-3.00;96.30;;;;;;4974348;28;20473;-78
2022/04/02 05:54:55;;;;;;;1.17;1.00;;;-3.00;96.30;;;;;;4970484;28;20465;-77
2022/04/02 05:57:20;;;;;;;11.37;1.30;;;-3.00;96.30;;;;;;4953921;29;20790;-78
2022/04/02 05:59:46;;;;;;;2.50;1.63;;;-3.00;96.30;;;;;;4954993;28;20454;-78
2022/04/02 06:02:12;;;;;;;2.10;1.57;;;-2.90;96.30;;;;;;4954739;28;20202;-78
2022/04/02 06:04:37;;;;;;;1.60;1.50;;;-2.90;96.30;;;;;;4954648;28;20171;-78
2022/04/02 06:07:03;;;;;;;1.33;1.23;;;-3.00;96.30;;;;;;4955979;29;20973;-78
2022/04/02 06:09:29;;;;;;;1.47;1.20;;;-2.90;96.30;;;;;;4953955;28;20179;-79
2022/04/02 06:11:54;;;;;;;6.40;1.40;;;-2.90;96.30;;;;;;4956382;28;20681;-78
2022/04/02 06:14:20;;;;;;;2.50;1.40;;;-2.80;96.30;;;;;;4954837;29;20171;-78
2022/04/02 06:16:45;;;;;;;14.13;1.97;;;-2.80;96.30;;;;;;4957081;28;20175;-78
2022/04/02 06:19:11;;;;;;;6.13;2.50;;;-2.80;96.30;;;;;;4960071;28;20310;-79
2022/04/02 06:21:36;;;;;;;4.07;1.87;;;-2.70;96.30;;;;;;4959651;28;20705;-78
2022/04/02 06:24:05;;;;;;;1.93;1.70;;;-2.70;96.30;;;;;;4960344;28;20184;-79
2022/04/02 06:26:31;;;;;;;1.90;1.63;;;-2.70;96.30;;;;;;4960366;28;20190;-79
2022/04/02 06:28:59;;;;;;;2.67;2.07;;;-2.80;96.30;;;;;;4960882;28;20419;-79
2022/04/02 06:31:24;;;;;;;4.97;3.03;;;-2.70;96.30;;;;;;4956863;29;20238;-80
2022/04/02 06:33:50;;;;;;;4.93;3.13;;;-2.60;96.30;;;;;;4953968;29;20945;-79
2022/04/02 06:36:16;;;;;;;2.90;2.03;;;-2.60;96.30;;;;;;4953586;29;20171;-79
2022/04/02 06:38:42;;;;;;;6.50;2.67;;;-2.70;96.30;;;;;;4953308;29;20182;-79
2022/04/02 06:41:07;;;;;;;3.60;2.60;;;-2.60;96.30;;;;;;4960444;28;20443;-79
2022/04/02 06:43:33;;;;;;;4.63;3.00;;;-2.60;96.30;;;;;;4954865;29;20182;-79
2022/04/02 06:45:58;;;;;;;4.47;2.50;;;-2.70;96.30;;;;;;4953066;29;20639;-79
2022/04/02 06:48:24;;;;;;;4.47;3.07;;;-2.70;96.30;;;;;;4954929;29;20171;-80
2022/04/02 06:50:49;;;;;;;47.27;2.80;;;-2.60;96.30;;;;;;4954931;29;20218;-80
2022/04/02 06:53:15;;;;;;;3.77;3.20;;;-2.60;96.30;;;;;;4953885;28;20238;-80
2022/04/02 06:55:40;;;;;;;6.27;3.20;;;-2.50;96.30;;;;;;4953908;29;20707;-80
2022/04/02 06:58:06;;;;;;;3.40;3.00;;;-2.60;96.30;;;;;;4954850;29;20175;-81
2022/04/02 07:00:31;;;;;;;3.57;2.70;;;-2.40;96.30;;;;;;4954977;29;20282;-81
2022/04/02 07:02:57;;;;;;;4.30;3.20;;;-2.30;96.30;;;;;;4955225;28;20175;-81
2022/04/02 07:05:22;;;;;;;5.23;2.70;;;-2.20;96.30;;;;;;4956292;29;20274;-80
2022/04/02 07:07:51;;;;;;;10.23;3.67;;;-2.20;96.30;;;;;;4955852;29;20233;-81
2022/04/02 07:10:17;;;;;;;5.40;2.87;;;-2.00;96.30;;;;;;4954749;29;20203;-80
2022/04/02 07:12:42;;;;;;;3.70;2.70;;;-1.90;96.30;;;;;;4954553;29;20426;-80
2022/04/02 07:15:09;;;;;;;3.20;2.10;;;-1.90;96.30;;;;;;4955026;29;20175;-80
2022/04/02 07:17:34;;;;;;;3.00;2.40;;;-2.00;96.30;;;;;;4954164;28;20179;-80
2022/04/02 07:20:01;;;;;;;3.57;3.27;;;-2.00;96.30;;;;;;4954712;29;20443;-80
2022/04/02 07:22:27;;;;;;;3.57;2.30;;;-2.00;96.30;;;;;;4954410;29;20621;-80
2022/04/02 07:24:55;;;;;;;2.67;1.70;;;-2.00;96.30;;;;;;4954490;28;20430;-80
2022/04/02 07:27:23;;;;;;;2.70;2.13;;;-2.10;96.30;;;;;;4954442;28;20428;-80
2022/04/02 07:29:58;;;;;;;11.17;3.00;;;-2.10;96.30;;;;;;4953314;29;20490;-79
2022/04/02 07:32:23;;;;;;;3.37;2.63;;;-2.00;96.30;;;;;;4953982;29;20444;-80
2022/04/02 07:34:49;;;;;;;3.37;2.50;;;-1.80;96.30;;;;;;4955719;28;20407;-80
2022/04/02 07:37:23;;;;;;;2.50;1.90;;;-1.70;96.30;;;;;;4953335;28;20585;-80
2022/04/02 07:40:03;;;;;;;5.27;2.37;;;-1.60;96.30;;;;;;4955426;29;20190;-80
2022/04/02 07:42:49;;;;;;;4.83;2.63;;;-1.70;96.30;;;;;;4956655;29;20797;-80
2022/04/02 07:45:23;;;;;;;4.37;3.20;;;-1.80;96.30;;;;;;4963059;28;20437;-80
2022/04/02 07:47:55;;;;;;;4.67;2.90;;;-1.60;96.30;;;;;;4985980;28;20766;-80
2022/04/02 07:50:25;;;;;;;10.97;2.70;;;-1.50;96.30;;;;;;4993511;28;20476;-80
2022/04/02 07:52:53;;;;;;;9.07;3.17;;;-1.30;96.30;;;;;;4990601;28;20474;-80
2022/04/02 07:55:20;;;;;;;4.63;2.57;;;-1.20;96.30;;;;;;4957576;28;20783;-80
2022/04/02 07:57:50;;;;;;;3.47;2.13;;;-1.30;96.30;;;;;;4956920;28;20406;-80
2022/04/02 08:00:20;;;;;;;7.37;2.80;;;-1.20;96.30;;;;;;4956177;29;20915;-81
2022/04/02 08:02:47;;;;;;;3.63;2.43;;;-1.10;96.30;;;;;;4957340;28;20425;-81
2022/04/02 08:05:14;;;;;;;3.37;1.93;;;-1.00;96.30;;;;;;4957375;28;20415;-81
2022/04/02 08:07:43;;;;;;;3.30;1.70;;;-0.90;96.30;;;;;;4957242;28;20417;-81
2022/04/02 08:10:14;;;;;;;1.90;1.70;;;-1.00;96.30;;;;;;4956171;29;20473;-82
2022/04/02 08:12:41;;;;;;;2.60;2.40;;;-1.20;96.30;;;;;;4956212;29;20986;-78
2022/04/02 08:15:12;;;;;;;4.57;2.37;;;-1.10;96.30;;;;;;4957669;28;20815;-78
2022/04/02 08:17:39;;;;;;;3.23;2.20;;;-0.80;96.30;;;;;;4957302;28;20823;-78
2022/04/02 08:20:05;;;;;;;1.80;1.60;;;-0.60;96.30;;;;;;4957872;28;20418;-78
2022/04/02 08:22:31;;;;;;;3.70;1.97;;;-0.70;96.30;;;;;;4955795;29;20951;-77
2022/04/02 08:24:58;;;;;;;3.07;2.30;;;-1.00;96.30;;;;;;4957249;29;20411;-77
2022/04/02 08:27:49;;;;;;;14.13;2.37;;;-0.90;96.30;;;;;;4957220;29;20178;-80
2022/04/02 08:30:27;;;;;;;6.03;2.03;;;-0.60;96.30;;;;;;4955598;29;20462;-77
2022/04/02 08:33:23;;;;;;;1.97;1.43;;;-0.50;96.30;;;;;;4955463;29;21015;-77
2022/04/02 08:36:16;;;;;;;3.07;1.90;;;-0.40;96.30;;;;;;4956973;28;20414;-78
2022/04/02 08:39:04;;;;;;;4.90;2.67;;;-0.60;96.30;;;;;;4956493;28;20434;-79
2022/04/02 08:41:29;;;;;;;7.37;2.53;;;-0.10;96.30;;;;;;4959607;28;20472;-77
2022/04/02 08:44:32;;;;;;;8.43;2.63;;;-0.10;96.30;;;;;;4972990;28;20464;-77
2022/04/02 08:47:27;;;;;;;2.33;1.80;;;0.30;96.30;;;;;;4975651;28;20186;-73
2022/04/02 08:50:13;;;;;;;4.87;1.93;;;0.10;96.30;;;;;;4948743;28;20466;-74
2022/04/02 08:53:14;;;;;;;5.60;1.97;;;-0.10;96.30;;;;;;4959636;28;20415;-74
2022/04/02 08:55:46;;;;;;;8.17;2.60;;;-0.10;96.30;;;;;;4955044;29;20423;-72
2022/04/02 08:58:25;;;;;;;6.17;2.17;;;0.10;96.30;;;;;;4956155;28;20958;-72
2022/04/02 09:01:04;;;;;;;4.20;2.03;;;0.40;96.30;;;;;;4957882;28;20449;-72
2022/04/02 09:04:01;;;;;;;4.27;1.90;;;0.50;96.30;;;;;;4955136;29;20422;-72
2022/04/02 09:06:51;;;;;;;1.67;1.57;;;0.80;96.30;;;;;;4956148;28;20399;-72
2022/04/02 09:10:11;;;;;;;6.13;2.00;;;0.30;96.30;;;;;;4955109;29;20419;-71
2022/04/02 09:12:56;;;;;;;5.80;1.87;;;0.10;96.30;;;;;;4896764;29;20510;-71
2022/04/02 09:15:50;;;;;;;7.70;2.50;;;-0.30;96.30;;;;;;4951296;28;20496;-74
2022/04/02 09:18:34;;;;;;;4.60;1.73;;;-0.30;96.30;;;;;;4955853;28;20395;-73
2022/04/02 09:21:25;;;;;;;3.57;2.10;;;-0.40;96.30;;;;;;4955265;29;20577;-71
2022/04/02 09:24:02;;;;;;;5.10;2.27;;;-0.20;96.30;;;;;;4954804;29;20423;-71
2022/04/02 09:26:48;;;;;;;3.07;2.00;;;0.10;96.30;;;;;;4956948;28;20767;-72
2022/04/02 09:29:17;;;;;;;3.93;2.40;;;0.10;96.30;;;;;;4956057;28;20434;-70
2022/04/02 09:32:27;;;;;;;3.77;2.47;;;-0.10;96.30;;;;;;4956522;28;20533;-71
2022/04/02 09:35:10;;;;;;;2.40;1.50;;;0.20;96.30;;;;;;4955997;29;20422;-71
2022/04/02 09:38:11;;;;;;;3.83;2.27;;;0.20;96.30;;;;;;4972792;28;20442;-73
2022/04/02 09:40:48;;;;;;;4.23;2.70;;;0.20;96.30;;;;;;4974915;28;20816;-74
2022/04/02 09:43:33;;;;;;;2.60;1.53;;;0.20;96.30;;;;;;4975651;28;20420;-71
2022/04/02 09:46:14;;;;;;;2.40;2.20;;;0.20;96.30;;;;;;4975098;28;20422;-72
2022/04/02 09:48:54;;;;;;;5.13;1.67;;;0.40;96.30;;;;;;4975304;28;21325;-71
2022/04/02 09:51:21;;;;;;;5.20;2.10;;;0.20;96.30;;;;;;4956254;28;20474;-71
2022/04/02 09:54:14;;;;;;;3.30;1.80;;;0.10;96.30;;;;;;4956330;28;20410;-71
2022/04/02 09:56:41;;;;;;;3.10;1.90;;;0.30;96.30;;;;;;4956363;28;20438;-71
2022/04/02 09:59:48;;;;;;;5.67;1.90;;;0.40;96.30;;;;;;4955276;29;20945;-74
2022/04/02 10:02:30;;;;;;;2.30;1.90;;;0.30;96.30;;;;;;4956412;28;20430;-70
2022/04/02 10:05:03;;;;;;;6.10;1.93;;;0.30;96.30;;;;;;4957111;28;20469;-71
2022/04/02 10:07:51;;;;;;;3.50;2.07;;;0.30;96.30;;;;;;4956426;28;20450;-71
2022/04/02 10:10:19;;;;;;;3.20;2.10;;;0.40;96.30;;;;;;4956678;28;20454;-71
2022/04/02 10:12:47;;;;;;;2.37;1.60;;;0.70;96.30;;;;;;4978938;28;20414;-73
2022/04/02 10:15:14;;;;;;;6.00;2.30;;;0.60;96.30;;;;;;4990170;28;20437;-78
2022/04/02 10:17:42;;;;;;;2.10;1.47;;;0.50;96.30;;;;;;4988882;28;20414;-75
2022/04/02 10:20:08;;;;;;;2.23;1.60;;;0.40;96.30;;;;;;4973468;28;20451;-73
2022/04/02 10:22:43;;;;;;;3.33;1.77;;;0.30;96.30;;;;;;4961789;29;20536;-72
2022/04/02 10:25:11;;;;;;;2.80;1.70;;;0.50;96.30;;;;;;4959324;28;20426;-72
2022/04/02 10:27:38;;;;;;;2.57;1.60;;;0.40;96.30;;;;;;4957468;28;20436;-72
2022/04/02 10:30:08;;;;;;;7.33;2.13;;;0.50;96.30;;;;;;4974244;28;20980;-71
2022/04/02 10:32:51;;;;;;;1.67;1.57;;;0.70;96.30;;;;;;4974155;28;20426;-71
2022/04/02 10:35:18;;;;;;;3.70;1.87;;;0.80;96.30;;;;;;4974234;28;20409;-71
2022/04/02 10:38:04;;;;;;;4.90;2.00;;;0.80;96.30;;;;;;4973753;28;20413;-71
2022/04/02 10:40:31;;;;;;;1.87;1.27;;;1.20;96.30;;;;;;4974047;28;20735;-71
2022/04/02 10:43:06;;;;;;;3.63;1.73;;;1.30;96.30;;;;;;4973902;28;20406;-71
2022/04/02 10:45:36;;;;;;;1.70;1.30;;;1.20;96.30;;;;;;4969111;28;20804;-74
2022/04/02 10:48:09;;;;;;;2.27;1.40;;;1.10;96.30;;;;;;4955486;28;20426;-73
2022/04/02 10:50:35;;;;;;;2.03;1.60;;;1.30;96.30;;;;;;4954011;29;20553;-74
2022/04/02 10:53:02;;;;;;;2.03;1.40;;;1.00;96.30;;;;;;4952947;28;20449;-72
2022/04/02 10:55:29;;;;;;;4.20;1.50;;;1.00;96.30;;;;;;4954256;29;20422;-74
2022/04/02 10:58:02;;;;;;;1.77;1.37;;;1.10;96.30;;;;;;4952929;29;20759;-74
2022/04/02 11:00:30;;;;;;;3.23;1.67;;;1.30;96.30;;;;;;4963877;28;20437;-75
2022/04/02 11:03:06;;;;;;;7.23;2.97;;;1.20;96.30;;;;;;4958028;28;20953;-73
2022/04/02 11:05:37;;;;;;;2.10;1.53;;;1.50;96.30;;;;;;4952982;29;20450;-75
2022/04/02 11:08:10;;;;;;;1.80;1.50;;;1.90;96.30;;;;;;4953285;29;20426;-74
2022/04/02 11:10:36;;;;;;;2.47;1.93;;;2.00;96.30;;;;;;4953916;28;20466;-74
2022/04/02 11:13:04;;;;;;;3.40;1.60;;;1.90;96.30;;;;;;4955995;28;20410;-75
2022/04/02 11:15:36;;;;;;;2.90;2.10;;;1.80;96.30;;;;;;4956760;29;20958;-75
2022/04/02 11:18:02;;;;;;;4.57;2.00;;;1.80;96.30;;;;;;4957293;28;20411;-74
2022/04/02 11:20:32;;;;;;;3.63;2.40;;;2.10;96.30;;;;;;4957926;28;20469;-73
2022/04/02 11:23:11;;;;;;;2.63;1.47;;;2.00;96.30;;;;;;4956601;29;20224;-73
2022/04/02 11:25:39;;;;;;;3.10;1.30;;;1.80;96.30;;;;;;4957888;28;20440;-73
2022/04/02 11:28:05;;;;;;;3.83;1.90;;;1.90;96.30;;;;;;4960294;28;20422;-74
2022/04/02 11:30:32;;;;;;;3.23;1.47;;;1.80;96.30;;;;;;4957216;28;20991;-74
2022/04/02 11:33:07;;;;;;;7.40;1.70;;;1.80;96.30;;;;;;4957713;28;20186;-72
2022/04/02 11:35:53;;;;;;;2.17;1.07;;;2.10;96.30;;;;;;4970600;28;20416;-70
2022/04/02 11:38:20;;;;;;;2.73;1.27;;;2.20;96.30;;;;;;4967666;28;20406;-70
2022/04/02 11:40:54;;;;;;;1.70;0.90;;;2.10;96.30;;;;;;4957378;29;20438;-71
2022/04/02 11:43:34;;;;;;;2.57;2.03;;;2.40;96.30;;;;;;4969156;28;20581;-70
2022/04/02 11:46:04;;;;;;;3.60;2.00;;;2.40;96.30;;;;;;4968004;28;20434;-71
2022/04/02 11:48:35;;;;;;;2.80;1.40;;;2.50;96.30;;;;;;4957100;28;20399;-71
2022/04/02 11:51:10;;;;;;;1.93;1.60;;;2.40;96.30;;;;;;4957352;29;20470;-73
2022/04/02 11:53:38;;;;;;;3.20;1.90;;;2.80;96.30;;;;;;4957368;29;20807;-70
2022/04/02 11:56:21;;;;;;;5.30;2.00;;;2.90;96.30;;;;;;4957332;28;20425;-70
2022/04/02 11:58:48;;;;;;;2.97;1.30;;;3.20;96.30;;;;;;4956764;29;20527;-70
2022/04/02 12:01:14;;;;;;;2.60;1.40;;;3.30;96.30;;;;;;4957190;29;20437;-71
2022/04/02 12:03:41;;;;;;;2.20;1.20;;;3.20;96.30;;;;;;4957235;29;20623;-70
2022/04/02 12:06:13;;;;;;;3.40;2.17;;;2.70;96.30;;;;;;4956791;29;20425;-70
2022/04/02 12:08:43;;;;;;;1.83;1.43;;;2.60;96.30;;;;;;4955320;29;20426;-71
2022/04/02 12:11:09;;;;;;;3.00;1.70;;;2.70;96.30;;;;;;4956934;28;20491;-71
2022/04/02 12:13:35;;;;;;;1.20;1.00;;;2.80;96.30;;;;;;4957041;29;20414;-71
2022/04/02 12:16:03;;;;;;;3.63;1.23;;;3.00;96.30;;;;;;4957049;29;20821;-70
2022/04/02 12:18:30;;;;;;;1.63;1.10;;;2.90;96.30;;;;;;4956274;29;20786;-70
2022/04/02 12:21:09;;;;;;;1.20;0.90;;;3.10;96.30;;;;;;4963448;28;20449;-69
2022/04/02 12:23:37;;;;;;;1.83;1.37;;;3.30;96.30;;;;;;4975968;28;20409;-70
2022/04/02 12:26:03;;;;;;;3.33;1.63;;;3.30;96.30;;;;;;4975722;28;20509;-70
2022/04/02 12:28:29;;;;;;;2.90;1.47;;;3.20;95.60;;;;;;4975439;28;20413;-70
2022/04/02 12:31:04;;;;;;;1.57;1.30;;;3.10;95.00;;;;;;4970147;28;20556;-70
2022/04/02 12:33:29;;;;;;;1.43;1.13;;;3.20;96.30;;;;;;4976007;28;20401;-70
2022/04/02 12:36:07;;;;;;;2.07;1.50;;;3.20;95.90;;;;;;4975979;28;20468;-70
2022/04/02 12:38:37;;;;;;;3.30;1.53;;;2.90;94.20;;;;;;4960152;28;20257;-71
2022/04/02 12:41:04;;;;;;;1.47;1.30;;;3.30;96.30;;;;;;4956430;28;20427;-73
2022/04/02 12:43:37;;;;;;;1.90;1.50;;;3.10;94.50;;;;;;4966310;28;20495;-71
2022/04/02 12:46:02;;;;;;;2.63;1.37;;;3.10;96.30;;;;;;4975874;28;20398;-71
2022/04/02 12:48:42;;;;;;;1.60;1.10;;;3.20;96.30;;;;;;4973883;28;20417;-71
2022/04/02 12:51:12;;;;;;;3.60;1.40;;;3.30;96.30;;;;;;4975543;28;20472;-71
2022/04/02 12:53:49;;;;;;;1.73;1.40;;;3.20;94.30;;;;;;4965383;28;20501;-71
2022/04/02 12:56:27;;;;;;;2.10;1.10;;;3.30;93.60;;;;;;4956217;28;20399;-72
2022/04/02 12:58:55;;;;;;;1.93;1.17;;;3.40;95.90;;;;;;4955660;28;20411;-74
2022/04/02 13:01:21;;;;;;;1.60;1.13;;;3.40;96.30;;;;;;4954474;29;20969;-71
2022/04/02 13:04:00;;;;;;;3.83;1.30;;;3.60;96.30;;;;;;4954873;29;20732;-70
2022/04/02 13:06:30;;;;;;;4.00;1.50;;;3.60;96.30;;;;;;4956089;28;20432;-71
2022/04/02 13:08:59;;;;;;;2.43;1.30;;;3.30;95.00;;;;;;4955459;29;20418;-71
2022/04/02 13:11:43;;;;;;;1.40;1.10;;;3.20;96.30;;;;;;4954877;29;20618;-71
2022/04/02 13:14:17;;;;;;;2.40;1.27;;;3.10;96.30;;;;;;4955998;28;20393;-72
2022/04/02 13:16:43;;;;;;;5.63;1.23;;;3.10;96.30;;;;;;4955880;28;20466;-73
2022/04/02 13:22:04;;;;;;;4.17;1.50;;;3.10;93.90;;;;;;4957581;28;21051;-73
2022/04/02 13:24:44;;;;;;;3.47;1.60;;;3.10;93.60;;;;;;4975136;28;20981;-72
2022/04/02 13:27:24;;;;;;;1.63;1.20;;;3.30;96.30;;;;;;4975040;28;20968;-72
2022/04/02 13:30:09;;;;;;;2.40;0.90;;;3.30;93.20;;;;;;4974606;28;20855;-73
2022/04/02 13:32:47;;;;;;;2.60;1.00;;;3.40;95.50;;;;;;4973452;28;20786;-73
2022/04/02 13:35:31;;;;;;;1.43;1.17;;;3.30;96.30;;;;;;4973428;28;20770;-73
2022/04/02 13:38:18;;;;;;;3.03;1.30;;;3.30;94.70;;;;;;4974038;28;20394;-75
2022/04/02 13:40:49;;;;;;;8.70;1.73;;;3.50;94.90;;;;;;4974633;28;20944;-72
2022/04/02 13:43:33;;;;;;;3.73;1.40;;;3.40;93.90;;;;;;4974786;28;20397;-73
2022/04/02 13:46:06;;;;;;;2.03;1.37;;;3.40;93.90;;;;;;4968818;28;22714;-72
2022/04/02 13:48:36;;;;;;;3.57;1.50;;;3.20;94.50;;;;;;4961037;28;20450;-73
2022/04/02 13:51:12;;;;;;;1.60;1.23;;;3.20;95.80;;;;;;4959184;28;20469;-73
2022/04/02 13:53:42;;;;;;;1.83;1.07;;;3.30;93.10;;;;;;4973833;28;20767;-73
2022/04/02 13:56:15;;;;;;;4.33;1.43;;;3.40;93.20;;;;;;4974363;28;20500;-73
2022/04/02 13:58:43;;;;;;;8.93;1.33;;;3.30;92.60;;;;;;4954812;28;20407;-74
2022/04/02 14:01:20;;;;;;;2.40;1.63;;;3.30;94.90;;;;;;4955081;28;20930;-73
2022/04/02 14:03:57;;;;;;;5.33;1.57;;;3.30;96.30;;;;;;4954803;28;20779;-74
2022/04/02 14:06:24;;;;;;;5.20;1.17;;;3.30;94.20;;;;;;4965666;28;20905;-74
2022/04/02 14:08:54;;;;;;;3.07;1.60;;;3.30;94.20;;;;;;4973670;28;20418;-74
2022/04/02 14:11:21;;;;;;;1.77;1.57;;;3.20;96.30;;;;;;4973786;28;20468;-73
2022/04/02 14:14:04;;;;;;;4.50;1.70;;;3.30;96.30;;;;;;4972981;28;20417;-74
2022/04/02 14:16:34;;;;;;;3.43;1.53;;;3.20;96.30;;;;;;4973768;28;20989;-74
2022/04/02 14:19:06;;;;;;;2.33;1.40;;;3.30;96.30;;;;;;4973682;28;20754;-73
2022/04/02 14:21:33;;;;;;;8.90;1.57;;;3.30;96.30;;;;;;4971125;28;20441;-73
2022/04/02 14:24:14;;;;;;;3.00;1.53;;;3.20;96.30;;;;;;4954534;28;20485;-74
2022/04/02 14:27:19;;;;;;;3.17;2.00;;;3.20;96.30;;;;;;4953463;29;20415;-73
2022/04/02 14:30:04;;;;;;;1.90;1.70;;;3.20;96.30;;;;;;4957263;28;20786;-74
2022/04/02 14:32:35;;;;;;;1.47;1.00;;;3.30;96.30;;;;;;4958330;28;20438;-73
2022/04/02 14:35:19;;;;;;;1.80;1.57;;;3.20;96.30;;;;;;4963080;28;20469;-74
2022/04/02 14:38:19;;;;;;;3.23;1.53;;;3.30;96.30;;;;;;4962810;28;20418;-76
2022/04/02 14:41:14;;;;;;;2.87;1.87;;;3.30;96.30;;;;;;4971169;28;20524;-73
2022/04/02 14:43:58;;;;;;;3.77;1.00;;;3.30;96.30;;;;;;4972120;28;20500;-74
2022/04/02 14:46:44;;;;;;;1.27;1.03;;;3.10;96.30;;;;;;4971741;28;20414;-74
2022/04/02 14:49:28;;;;;;;2.33;1.43;;;3.00;96.30;;;;;;4971835;28;20808;-74
2022/04/02 14:52:15;;;;;;;1.77;1.30;;;2.90;96.30;;;;;;4952762;29;20466;-73
2022/04/02 14:55:18;;;;;;;4.20;1.57;;;2.70;96.30;;;;;;4954315;28;20888;-73
2022/04/02 14:58:21;;;;;;;3.37;1.93;;;2.70;96.30;;;;;;4952390;29;20457;-74
2022/04/02 15:01:14;;;;;;;2.40;1.50;;;2.90;96.30;;;;;;4954159;29;20434;-73
2022/04/02 15:03:58;;;;;;;3.60;1.63;;;2.80;96.30;;;;;;4963033;28;20419;-73
2022/04/02 15:06:45;;;;;;;5.83;2.47;;;2.80;96.30;;;;;;4952913;29;20410;-73
2022/04/02 15:09:38;;;;;;;5.33;1.57;;;2.90;96.30;;;;;;4952453;29;20422;-73
2022/04/02 15:12:09;;;;;;;3.70;1.70;;;2.80;96.30;;;;;;4954139;29;20435;-73
2022/04/02 15:14:37;;;;;;;2.30;1.67;;;2.80;96.30;;;;;;4954268;28;20457;-73
2022/04/02 15:17:37;;;;;;;2.33;1.20;;;2.70;96.30;;;;;;4954169;28;20414;-74
2022/04/02 15:20:17;;;;;;;30.53;2.57;;;2.60;96.30;;;;;;4894987;29;20477;-73
2022/04/02 15:22:43;;;;;;;1.83;1.50;;;2.60;96.30;;;;;;4947103;28;20422;-74
2022/04/02 15:25:25;;;;;;;2.63;1.87;;;2.60;96.30;;;;;;4953254;29;20758;-74
2022/04/02 15:27:53;;;;;;;2.67;2.17;;;2.70;96.30;;;;;;4954142;28;20403;-73
2022/04/02 16:14:39;;;;;;;2.57;1.40;;;2.10;96.30;;;;;;4994119;28;20849;-75
2022/04/02 16:17:11;;;;;;;6.00;1.90;;;2.10;96.30;;;;;;4995712;28;20411;-76
2022/04/02 16:19:59;;;;;;;5.00;1.77;;;2.00;96.30;;;;;;4977806;28;20479;-75
2022/04/02 16:22:44;;;;;;;1.33;1.23;;;2.00;96.30;;;;;;4978227;28;20433;-75
2022/04/02 16:25:18;;;;;;;2.93;1.93;;;1.90;96.30;;;;;;4985342;28;20425;-74
2022/04/02 16:27:48;;;;;;;3.17;1.70;;;1.90;96.30;;;;;;4975730;28;20413;-74
2022/04/02 16:30:23;;;;;;;4.47;2.30;;;1.90;96.30;;;;;;4958494;28;20466;-75
2022/04/02 16:32:59;;;;;;;7.67;2.03;;;1.90;96.30;;;;;;4976029;28;20460;-76
2022/04/02 16:35:30;;;;;;;2.40;1.90;;;1.80;96.30;;;;;;4976153;28;20401;-73
2022/04/02 16:38:10;;;;;;;3.57;1.83;;;1.80;96.30;;;;;;4958723;28;20775;-75
2022/04/02 16:41:17;;;;;;;2.90;1.60;;;1.80;96.30;;;;;;4958495;28;21094;-76
2022/04/02 16:43:49;;;;;;;6.50;1.87;;;1.80;96.30;;;;;;4948798;28;20941;-74
2022/04/02 16:59:46;;;;;;;1.87;1.50;;;1.60;96.30;;;;;;4897642;29;20403;-76
2022/04/02 17:02:12;;;;;;;1.50;1.23;;;1.60;96.30;;;;;;4881189;29;20438;-76
2022/04/02 17:04:37;;;;;;;2.70;1.40;;;1.50;96.30;;;;;;4951404;28;20417;-76
2022/04/02 17:07:08;;;;;;;4.87;1.80;;;1.50;96.30;;;;;;4975342;28;20189;-76
2022/04/02 17:09:34;;;;;;;3.10;1.73;;;1.40;96.30;;;;;;4975165;28;20177;-76
2022/04/02 17:12:00;;;;;;;7.43;2.07;;;1.30;96.30;;;;;;4957617;28;20465;-77
2022/04/02 17:14:31;;;;;;;1.77;1.60;;;1.30;96.30;;;;;;4957573;28;20480;-75
2022/04/02 17:16:57;;;;;;;6.73;2.40;;;1.20;96.30;;;;;;4975159;28;20198;-76
2022/04/02 17:19:26;;;;;;;2.70;2.00;;;1.10;96.30;;;;;;4957590;28;20419;-76
2022/04/02 17:22:00;;;;;;;1.90;1.30;;;1.10;96.30;;;;;;4960123;28;20208;-75
2022/04/02 17:24:27;;;;;;;1.83;1.33;;;1.10;96.30;;;;;;4985229;28;21018;-75
2022/04/02 17:27:17;;;;;;;1.60;1.50;;;1.10;96.30;;;;;;4961909;28;20495;-76
2022/04/02 17:29:45;;;;;;;3.17;2.03;;;1.10;96.30;;;;;;4983370;28;20856;-76
2022/04/02 17:32:18;;;;;;;2.17;1.57;;;1.00;96.30;;;;;;4945550;29;20467;-76
2022/04/02 17:34:49;;;;;;;2.70;1.97;;;1.00;96.30;;;;;;4937862;29;20426;-76
2022/04/02 17:37:14;;;;;;;2.00;1.73;;;0.90;96.30;;;;;;4938201;29;20477;-75
2022/04/02 17:40:16;;;;;;;3.10;1.50;;;0.90;96.30;;;;;;4954808;29;20416;-76
2022/04/02 17:42:48;;;;;;;3.33;1.80;;;0.90;96.30;;;;;;4938402;29;20590;-76
2022/04/02 17:45:28;;;;;;;2.07;1.77;;;0.80;96.30;;;;;;4962360;28;20417;-76
2022/04/02 17:48:15;;;;;;;5.30;2.67;;;0.80;96.30;;;;;;4956617;28;20433;-76
2022/04/02 17:50:56;;;;;;;3.27;1.90;;;0.70;96.30;;;;;;4957615;28;20497;-76
2022/04/02 17:53:26;;;;;;;3.83;2.57;;;0.60;96.30;;;;;;4974607;28;21082;-77
2022/04/02 17:56:16;;;;;;;2.30;1.97;;;0.60;96.30;;;;;;4974395;28;20465;-77
2022/04/02 17:58:47;;;;;;;1.57;1.47;;;0.60;96.30;;;;;;4956940;28;20422;-77
2022/04/02 18:01:34;;;;;;;3.93;1.60;;;0.50;96.30;;;;;;4956932;28;20446;-78
2022/04/02 18:04:15;;;;;;;1.77;1.30;;;0.50;96.30;;;;;;4962369;28;20437;-75
2022/04/02 18:06:45;;;;;;;2.80;1.60;;;0.50;96.30;;;;;;4974321;28;20409;-77
2022/04/02 18:09:10;;;;;;;3.60;1.70;;;0.50;96.30;;;;;;4956433;28;20834;-76
2022/04/02 18:11:36;;;;;;;2.53;1.50;;;0.50;96.30;;;;;;4974035;28;20503;-74
2022/04/02 18:14:03;;;;;;;4.10;1.47;;;0.40;96.30;;;;;;4974050;28;20201;-74
2022/04/02 18:16:29;;;;;;;3.30;1.90;;;0.40;96.30;;;;;;4974120;28;20198;-76
2022/04/02 18:18:55;;;;;;;2.70;1.70;;;0.30;96.30;;;;;;4973890;28;20409;-74
2022/04/02 18:21:25;;;;;;;3.73;2.10;;;0.30;96.30;;;;;;4973902;28;20270;-74
2022/04/02 18:23:52;;;;;;;3.03;2.07;;;0.30;96.30;;;;;;4969616;28;20484;-75
2022/04/02 18:26:18;;;;;;;2.90;1.47;;;0.30;96.30;;;;;;4956581;28;20796;-74
2022/04/02 18:28:43;;;;;;;4.37;1.90;;;0.20;96.30;;;;;;4973672;28;20426;-74
2022/04/02 18:31:09;;;;;;;4.53;1.90;;;0.20;96.30;;;;;;4956414;28;20476;-74
2022/04/02 18:33:34;;;;;;;3.30;1.23;;;0.20;96.30;;;;;;4973881;28;20181;-74
2022/04/02 18:36:00;;;;;;;3.20;1.73;;;0.20;96.30;;;;;;4977543;28;20181;-74
2022/04/02 18:38:26;;;;;;;1.70;1.60;;;0.10;96.30;;;;;;4992560;28;20634;-75
2022/04/02 18:40:52;;;;;;;2.63;2.03;;;0.10;96.30;;;;;;4975649;28;20212;-74
2022/04/02 18:43:18;;;;;;;2.47;1.80;;;0.10;96.30;;;;;;4993086;28;20177;-75
2022/04/02 18:45:46;;;;;;;2.90;1.50;;;0.10;96.30;;;;;;4988741;28;20771;-76
2022/04/02 18:48:11;;;;;;;5.83;1.67;;;0.10;96.30;;;;;;4973073;28;20421;-74
2022/04/02 18:50:39;;;;;;;2.20;1.63;;;0.00;96.30;;;;;;4973372;28;20549;-74
2022/04/02 18:53:05;;;;;;;3.60;2.07;;;0.00;96.30;;;;;;4973610;28;20170;-74
2022/04/02 18:55:31;;;;;;;5.90;1.83;;;0.00;96.30;;;;;;4973540;28;20492;-74
2022/04/02 18:57:56;;;;;;;2.50;1.87;;;0.00;96.30;;;;;;4956056;28;20913;-74
2022/04/02 19:00:22;;;;;;;1.47;1.07;;;0.00;96.30;;;;;;4973384;28;20181;-74
2022/04/02 19:02:48;;;;;;;4.87;1.90;;;0.00;96.30;;;;;;4969899;28;20196;-74
2022/04/02 19:05:13;;;;;;;3.50;2.23;;;0.00;96.30;;;;;;4975462;28;20181;-74
2022/04/02 19:07:39;;;;;;;13.53;2.40;;;0.00;96.30;;;;;;4974653;28;20579;-74
2022/04/02 19:10:05;;;;;;;5.13;1.80;;;-0.10;96.30;;;;;;4973346;28;20201;-75
2022/04/02 19:12:31;;;;;;;1.97;1.77;;;0.00;96.30;;;;;;4955839;28;20583;-74
2022/04/02 19:14:56;;;;;;;5.10;1.67;;;-0.10;96.30;;;;;;4956106;28;20468;-74
2022/04/02 19:17:24;;;;;;;5.20;2.30;;;-0.10;96.30;;;;;;4973330;28;20174;-73
2022/04/02 19:19:51;;;;;;;7.33;2.57;;;-0.10;96.30;;;;;;4973198;28;20189;-74
2022/04/02 19:22:17;;;;;;;2.33;2.03;;;-0.10;96.30;;;;;;4973336;28;20436;-74
2022/04/02 19:24:43;;;;;;;5.57;2.43;;;-0.10;96.30;;;;;;4972813;28;20445;-74
2022/04/02 19:27:08;;;;;;;8.00;2.17;;;-0.10;96.30;;;;;;4973135;28;20516;-74
2022/04/02 19:29:34;;;;;;;3.50;2.00;;;-0.10;96.30;;;;;;4955535;28;20422;-74
2022/04/02 19:31:59;;;;;;;2.27;1.43;;;-0.10;96.30;;;;;;4955798;28;20269;-75